Time;durP1;ratioP1;P1;durP2;ratioP2;P2;SDS_P1;SDS_P2;PMS_P1;PMS_P2;Temp;Humidity;BMP_temperature;BMP_pressure;BME280_temperature;BME280_humidity;BME280_pressure;Samples;Min_cycle;Max_cycle;Signal;HPM_P1;HPM_P2
2022/01/24 00:01:23;;;;;;;30.20;10.38;;;;;;;4.52;100.00;99686.72;5037096;28;20059;-59
2022/01/24 00:03:55;;;;;;;24.15;10.13;;;;;;;4.86;100.00;99685.34;5038434;28;20112;-59
2022/01/24 00:06:21;;;;;;;26.60;10.80;;;;;;;4.79;100.00;99676.63;5037609;28;20037;-59
2022/01/24 00:08:46;;;;;;;26.75;10.20;;;;;;;4.78;100.00;99677.50;5038019;28;20027;-57
2022/01/24 00:11:15;;;;;;;29.70;11.00;;;;;;;5.02;100.00;99686.34;5036446;28;20527;-58
2022/01/24 00:26:56;;;;;;;25.42;9.88;;;;;;;4.66;100.00;99672.22;5037450;28;20156;-59
2022/01/24 00:29:24;;;;;;;26.13;10.38;;;;;;;4.40;100.00;99670.25;5037557;28;20403;-58
2022/01/24 00:31:51;;;;;;;29.23;11.32;;;;;;;4.21;100.00;99668.31;5051340;28;20072;-59
2022/01/24 00:34:18;;;;;;;26.15;11.05;;;;;;;4.28;100.00;99677.84;5037061;28;20525;-57
2022/01/24 00:36:47;;;;;;;26.55;10.45;;;;;;;4.57;100.00;99672.13;5036843;28;20040;-59
2022/01/24 00:39:13;;;;;;;29.50;11.20;;;;;;;4.59;100.00;99673.00;5035656;28;20048;-58
2022/01/24 00:42:10;;;;;;;29.25;11.13;;;;;;;4.66;100.00;99667.03;5035445;28;20048;-59
2022/01/24 00:47:02;;;;;;;25.15;10.27;;;;;;;4.35;100.00;99679.66;5035541;28;20041;-60
2022/01/24 00:54:43;;;;;;;26.98;11.10;;;;;;;4.47;100.00;99680.63;5037080;28;20726;-58
2022/01/24 00:57:11;;;;;;;29.52;10.73;;;;;;;4.64;100.00;99664.44;5035874;28;20694;-59
2022/01/24 00:59:37;;;;;;;27.48;10.75;;;;;;;4.56;100.00;99663.50;5036843;28;20511;-58
2022/01/24 01:02:03;;;;;;;30.23;10.88;;;;;;;4.65;100.00;99665.34;5035572;28;20110;-59
2022/01/24 01:04:39;;;;;;;24.77;10.18;;;;;;;4.33;100.00;99673.59;5036899;28;20020;-58
2022/01/24 01:07:06;;;;;;;26.67;10.98;;;;;;;4.42;100.00;99673.69;5035926;28;20606;-58
2022/01/24 01:20:36;;;;;;;26.10;9.95;;;;;;;4.08;100.00;99677.63;5036199;28;20047;-61
2022/01/24 01:23:01;;;;;;;26.85;10.30;;;;;;;4.51;100.00;99674.66;5036505;28;20029;-60
2022/01/24 01:25:27;;;;;;;21.52;8.05;;;;;;;4.80;100.00;99664.59;5036153;28;20720;-61
2022/01/24 01:27:53;;;;;;;24.30;10.25;;;;;;;4.44;100.00;99661.66;5036509;28;20048;-59
2022/01/24 01:30:24;;;;;;;27.30;10.75;;;;;;;4.72;100.00;99667.09;5035749;28;20031;-59
2022/01/24 01:33:01;;;;;;;26.92;10.80;;;;;;;4.51;100.00;99656.56;5036780;28;20086;-59
2022/01/24 01:57:12;;;;;;;22.95;9.50;;;;;;;4.43;100.00;99628.94;5036063;28;20051;-58
2022/01/24 01:59:37;;;;;;;25.60;8.98;;;;;;;4.25;100.00;99636.50;5036224;28;20021;-59
2022/01/24 02:02:03;;;;;;;22.55;9.15;;;;;;;4.42;100.00;99626.31;5035845;28;20045;-59
2022/01/24 02:04:28;;;;;;;25.40;9.13;;;;;;;4.76;100.00;99629.22;5036822;28;20040;-59
2022/01/24 02:06:54;;;;;;;23.67;9.00;;;;;;;4.52;100.00;99622.09;5035834;28;20041;-59
2022/01/24 02:09:19;;;;;;;23.45;8.38;;;;;;;4.57;100.00;99628.19;5036532;28;20090;-59
2022/01/24 02:11:47;;;;;;;22.77;8.55;;;;;;;4.34;100.00;99626.25;5035598;28;20923;-62
2022/01/24 02:14:17;;;;;;;26.75;9.48;;;;;;;4.38;100.00;99629.75;5036445;28;20144;-61
2022/01/24 02:19:21;;;;;;;23.25;9.32;;;;;;;4.06;100.00;99627.66;5036411;28;20033;-59
2022/01/24 02:22:39;;;;;;;26.17;9.45;;;;;;;4.44;100.00;99619.47;5035791;28;20041;-58
2022/01/24 02:24:51;;;;;;;25.65;9.65;;;;;;;4.29;100.00;99625.34;5035786;28;20253;-61
2022/01/24 02:27:18;;;;;;;21.95;8.90;;;;;;;4.13;100.00;99624.28;5033708;28;20502;-59
2022/01/24 02:30:40;;;;;;;20.60;8.10;;;;;;;4.29;100.00;99622.75;5036677;28;20590;-61
2022/01/24 02:32:37;;;;;;;22.95;8.90;;;;;;;4.46;100.00;99622.06;5033264;28;20051;-58
2022/01/24 02:35:03;;;;;;;25.48;9.40;;;;;;;4.17;100.00;99627.78;5039484;28;20048;-60
2022/01/24 02:37:28;;;;;;;24.55;9.27;;;;;;;4.04;100.00;99619.91;5039821;28;20025;-60
2022/01/24 02:40:05;;;;;;;22.77;9.05;;;;;;;4.26;100.00;99609.78;5039808;28;20028;-60
2022/01/24 02:51:08;;;;;;;23.42;9.20;;;;;;;3.80;100.00;99604.13;5039259;28;20453;-59
2022/01/24 02:53:34;;;;;;;21.17;7.63;;;;;;;4.55;100.00;99604.06;5038232;28;20031;-59
2022/01/24 02:56:00;;;;;;;24.60;9.70;;;;;;;4.32;100.00;99607.28;5039138;28;20139;-59
2022/01/24 02:58:26;;;;;;;28.42;9.95;;;;;;;4.31;100.00;99608.13;5039052;28;20024;-59
2022/01/24 03:00:53;;;;;;;24.77;9.95;;;;;;;4.09;100.00;99601.88;5038613;28;20037;-60
2022/01/24 03:03:18;;;;;;;26.85;10.32;;;;;;;3.97;100.00;99606.91;5039196;28;20123;-60
2022/01/24 03:05:44;;;;;;;26.20;10.05;;;;;;;4.35;100.00;99603.88;5038138;28;20155;-61
2022/01/24 03:08:10;;;;;;;28.27;9.73;;;;;;;4.29;100.00;99602.09;5039070;28;20114;-60
2022/01/24 03:10:40;;;;;;;24.42;9.55;;;;;;;4.35;100.00;99602.13;5038781;28;20044;-59
2022/01/24 03:13:48;;;;;;;22.25;9.63;;;;;;;4.28;100.00;99602.94;5039035;28;20549;-59
2022/01/24 03:15:56;;;;;;;25.90;9.90;;;;;;;4.03;100.00;99604.41;5032002;28;20040;-59
2022/01/24 03:18:22;;;;;;;21.63;7.45;;;;;;;4.52;100.00;99591.09;5038847;28;20024;-59
2022/01/24 03:20:48;;;;;;;27.50;9.80;;;;;;;4.68;100.00;99582.63;5038278;28;20040;-60
2022/01/24 03:23:18;;;;;;;24.95;9.52;;;;;;;4.29;100.00;99584.00;5038690;28;20033;-58
2022/01/24 03:25:44;;;;;;;24.38;9.27;;;;;;;4.41;100.00;99601.34;5038546;28;20033;-61
2022/01/24 03:28:10;;;;;;;25.90;10.23;;;;;;;4.42;100.00;99593.59;5038734;28;20078;-59
2022/01/24 03:30:37;;;;;;;26.50;9.60;;;;;;;4.27;100.00;99590.88;5038027;28;20044;-60
2022/01/24 03:33:03;;;;;;;21.95;8.70;;;;;;;4.26;100.00;99576.22;5038347;28;20028;-58
2022/01/24 03:35:29;;;;;;;26.02;9.40;;;;;;;4.16;100.00;99574.41;5037714;28;20785;-60
2022/01/24 03:37:54;;;;;;;19.88;8.23;;;;;;;4.24;100.00;99572.75;5038259;28;20033;-59
2022/01/24 03:40:20;;;;;;;29.30;10.30;;;;;;;4.59;100.00;99572.22;5038000;28;20024;-61
2022/01/24 03:42:45;;;;;;;25.25;10.00;;;;;;;4.59;100.00;99560.16;5037418;28;20032;-60
2022/01/24 03:45:12;;;;;;;20.90;8.68;;;;;;;4.43;100.00;99558.31;5037018;28;20144;-58
2022/01/24 03:48:02;;;;;;;24.48;10.05;;;;;;;4.48;100.00;99568.66;5038660;28;20037;-58
2022/01/24 03:50:27;;;;;;;24.52;8.20;;;;;;;4.52;100.00;99566.16;5037298;28;20060;-59
2022/01/24 03:52:53;;;;;;;21.98;8.95;;;;;;;4.41;100.00;99563.47;5038254;28;20686;-59
2022/01/24 03:55:18;;;;;;;24.67;8.85;;;;;;;4.55;100.00;99554.94;5038282;28;20136;-59
2022/01/24 03:57:43;;;;;;;23.83;8.70;;;;;;;4.11;100.00;99558.00;5038487;28;20164;-61
2022/01/24 04:00:09;;;;;;;21.70;8.73;;;;;;;4.21;100.00;99559.84;5037844;28;20734;-60
2022/01/24 04:02:35;;;;;;;23.20;8.57;;;;;;;3.80;100.00;99558.53;5037720;28;20032;-59
2022/01/24 04:05:01;;;;;;;21.10;8.60;;;;;;;4.29;100.00;99559.91;5037957;28;20057;-61
2022/01/24 04:07:26;;;;;;;24.25;8.88;;;;;;;4.23;100.00;99558.97;5037440;28;20223;-59
2022/01/24 04:09:52;;;;;;;26.95;9.27;;;;;;;4.41;100.00;99563.47;5037908;28;20115;-59
2022/01/24 04:12:17;;;;;;;27.02;9.50;;;;;;;4.07;100.00;99561.41;5036737;28;20461;-60
2022/01/24 04:22:13;;;;;;;23.70;9.07;;;;;;;4.37;100.00;99555.66;5037491;28;20033;-59
2022/01/24 04:24:39;;;;;;;22.08;8.63;;;;;;;4.11;100.00;99552.84;5037537;28;20025;-58
2022/01/24 04:27:05;;;;;;;21.83;8.23;;;;;;;4.23;100.00;99558.13;5036940;28;20048;-58
2022/01/24 04:29:30;;;;;;;25.98;8.80;;;;;;;4.47;100.00;99535.91;5037053;28;20056;-59
2022/01/24 04:31:56;;;;;;;20.52;8.15;;;;;;;4.26;100.00;99542.63;5036616;28;20075;-59
2022/01/24 04:34:21;;;;;;;22.10;8.00;;;;;;;4.70;100.00;99533.53;5037741;28;20406;-59
2022/01/24 04:36:47;;;;;;;23.65;8.52;;;;;;;4.04;100.00;99547.63;5037299;28;20105;-58
2022/01/24 04:39:13;;;;;;;19.67;8.13;;;;;;;4.30;100.00;99548.69;5037181;28;20119;-61
2022/01/24 04:41:43;;;;;;;19.70;8.30;;;;;;;4.34;100.00;99551.34;5036795;28;20037;-59
2022/01/24 04:44:18;;;;;;;22.73;7.80;;;;;;;4.51;100.00;99545.44;5037173;28;20028;-60
2022/01/24 04:47:03;;;;;;;26.42;8.95;;;;;;;3.94;100.00;99553.53;5037282;28;20036;-59
2022/01/24 04:54:45;;;;;;;20.70;8.00;;;;;;;4.61;100.00;99544.66;5036344;28;20028;-60
2022/01/24 04:57:23;;;;;;;25.77;8.68;;;;;;;4.73;100.00;99549.94;5037060;28;20048;-59
2022/01/24 04:59:50;;;;;;;25.60;8.82;;;;;;;4.34;100.00;99564.25;5036772;28;20848;-59
2022/01/24 05:02:17;;;;;;;19.45;7.43;;;;;;;4.33;100.00;99549.59;5034908;28;20037;-59
2022/01/24 05:04:43;;;;;;;21.83;8.02;;;;;;;4.54;100.00;99548.03;5037023;28;20035;-59
2022/01/24 05:07:08;;;;;;;25.23;8.55;;;;;;;4.26;100.00;99555.56;5036565;28;20045;-58
2022/01/24 05:09:42;;;;;;;18.77;7.28;;;;;;;4.36;100.00;99559.97;5036929;28;20106;-58
2022/01/24 05:23:49;;;;;;;20.10;8.23;;;;;;;4.31;100.00;99553.03;5036425;28;20747;-59
2022/01/24 05:25:50;;;;;;;23.67;8.63;;;;;;;4.33;100.00;99554.75;5027829;28;20047;-59
2022/01/24 05:28:15;;;;;;;23.50;8.68;;;;;;;4.42;100.00;99554.84;5036632;28;20029;-59
2022/01/24 05:30:40;;;;;;;22.83;7.93;;;;;;;4.15;100.00;99552.00;5036391;28;20040;-59
2022/01/24 05:33:06;;;;;;;23.95;8.68;;;;;;;4.10;100.00;99556.25;5036405;28;20029;-60
2022/01/24 05:35:31;;;;;;;21.38;7.75;;;;;;;4.33;100.00;99554.75;5036211;28;20033;-59
2022/01/24 05:37:57;;;;;;;20.95;8.43;;;;;;;4.30;100.00;99553.88;5036292;28;20029;-57
2022/01/24 05:40:22;;;;;;;25.90;7.88;;;;;;;4.36;100.00;99544.47;5036044;28;20233;-57
2022/01/24 05:42:47;;;;;;;21.55;8.02;;;;;;;4.15;100.00;99554.59;5037017;28;20108;-58
2022/01/24 05:45:13;;;;;;;19.17;7.30;;;;;;;4.36;100.00;99559.09;5034553;28;20037;-58
2022/01/24 05:47:38;;;;;;;24.42;8.20;;;;;;;4.40;100.00;99556.56;5036726;28;20025;-58
2022/01/24 05:50:04;;;;;;;18.33;6.75;;;;;;;4.63;100.00;99563.63;5034345;28;20033;-57
2022/01/24 05:52:30;;;;;;;25.90;7.80;;;;;;;4.61;100.00;99575.66;5033511;28;20397;-59
2022/01/24 05:54:55;;;;;;;21.15;6.72;;;;;;;4.50;100.00;99569.53;5034367;28;20025;-58
2022/01/24 05:57:20;;;;;;;22.48;7.40;;;;;;;4.64;100.00;99560.19;5036077;28;20546;-60
2022/01/24 05:59:46;;;;;;;22.67;7.15;;;;;;;4.65;100.00;99561.94;5035885;28;20517;-58
2022/01/24 06:02:11;;;;;;;20.42;6.78;;;;;;;4.74;100.00;99567.19;5028696;28;20099;-60
2022/01/24 06:04:36;;;;;;;21.30;7.35;;;;;;;4.15;100.00;99570.94;5039051;28;20025;-59
2022/01/24 06:07:02;;;;;;;17.38;6.68;;;;;;;4.59;100.00;99567.91;5043078;28;20041;-61
2022/01/24 06:09:27;;;;;;;24.27;7.15;;;;;;;4.70;100.00;99560.22;5043184;28;20445;-57
2022/01/24 06:11:53;;;;;;;20.63;6.68;;;;;;;4.43;100.00;99566.06;5042689;28;20095;-59
2022/01/24 06:14:18;;;;;;;17.13;6.22;;;;;;;4.82;100.00;99560.34;5038936;28;20124;-58
2022/01/24 06:16:44;;;;;;;19.60;7.00;;;;;;;4.73;100.00;99559.41;5039888;28;20124;-59
2022/01/24 06:19:09;;;;;;;22.83;8.30;;;;;;;4.83;100.00;99567.25;5042849;28;20646;-58
2022/01/24 06:21:35;;;;;;;18.42;6.90;;;;;;;4.44;100.00;99567.78;5042623;28;20047;-59
2022/01/24 06:24:01;;;;;;;15.65;6.20;;;;;;;4.59;100.00;99574.78;5042663;28;20064;-58
2022/01/24 06:26:26;;;;;;;17.67;6.95;;;;;;;4.43;100.00;99576.41;5042589;28;20033;-59
2022/01/24 06:28:52;;;;;;;17.13;6.55;;;;;;;4.70;100.00;99575.75;5043065;28;20120;-57
2022/01/24 06:31:19;;;;;;;22.25;7.28;;;;;;;4.41;100.00;99586.72;5042049;28;20033;-59
2022/01/24 06:33:44;;;;;;;18.60;6.97;;;;;;;4.33;100.00;99598.69;5043329;28;20028;-60
2022/01/24 06:36:10;;;;;;;15.02;7.00;;;;;;;4.09;100.00;99590.69;5042647;28;20203;-60
2022/01/24 06:38:35;;;;;;;23.92;8.60;;;;;;;4.58;100.00;99601.50;5043044;28;20060;-60
2022/01/24 06:41:01;;;;;;;18.05;7.28;;;;;;;4.72;100.00;99599.88;5042050;28;20505;-59
2022/01/24 06:43:26;;;;;;;21.02;7.60;;;;;;;4.80;100.00;99598.25;5043179;28;20045;-60
2022/01/24 06:45:52;;;;;;;18.83;7.28;;;;;;;4.64;100.00;99607.56;5042201;28;20120;-59
2022/01/24 06:48:17;;;;;;;18.80;7.28;;;;;;;4.40;100.00;99605.63;5043341;28;20112;-58
2022/01/24 06:50:43;;;;;;;16.15;5.45;;;;;;;4.46;100.00;99610.00;5042135;28;20112;-59
2022/01/24 06:53:08;;;;;;;17.42;6.45;;;;;;;5.44;100.00;99609.88;5042793;28;20112;-60
2022/01/24 06:55:34;;;;;;;20.75;5.93;;;;;;;4.85;100.00;99610.34;5042236;28;20057;-60
2022/01/24 06:57:59;;;;;;;24.92;7.75;;;;;;;4.46;100.00;99616.88;5040356;28;20432;-58
2022/01/24 07:00:29;;;;;;;22.52;7.30;;;;;;;5.40;100.00;99615.88;5038709;28;20049;-58
2022/01/24 07:02:56;;;;;;;16.08;6.45;;;;;;;5.75;100.00;99615.19;5041419;28;20025;-59
2022/01/24 07:05:22;;;;;;;19.42;7.28;;;;;;;4.56;100.00;99618.72;5040331;28;20033;-58
2022/01/24 07:07:47;;;;;;;17.35;7.07;;;;;;;4.64;100.00;99623.09;5042326;28;20024;-59
2022/01/24 07:10:13;;;;;;;20.30;7.38;;;;;;;4.43;100.00;99625.50;5040301;28;20029;-58
2022/01/24 07:12:38;;;;;;;21.40;7.72;;;;;;;4.71;100.00;99639.53;5042532;28;20082;-58
2022/01/24 07:15:09;;;;;;;16.75;6.97;;;;;;;5.13;100.00;99627.81;5042197;28;20025;-60
2022/01/24 07:17:59;;;;;;;18.40;7.38;;;;;;;4.58;100.00;99637.69;5041111;28;20214;-58
2022/01/24 07:20:20;;;;;;;21.77;8.07;;;;;;;4.72;100.00;99643.84;5040276;28;20044;-59
2022/01/24 07:22:46;;;;;;;19.13;7.28;;;;;;;4.86;100.00;99649.13;5040897;28;20025;-60
2022/01/24 07:25:11;;;;;;;20.67;7.68;;;;;;;4.92;100.00;99649.19;5039947;28;20053;-59
2022/01/24 07:27:36;;;;;;;27.25;7.65;;;;;;;4.73;100.00;99647.31;5041103;28;20021;-58
2022/01/24 07:30:04;;;;;;;20.48;8.05;;;;;;;4.50;100.00;99650.50;5040473;28;20036;-58
2022/01/24 07:32:30;;;;;;;21.08;8.20;;;;;;;4.51;100.00;99649.69;5039733;28;20044;-58
2022/01/24 07:34:56;;;;;;;25.40;8.68;;;;;;;4.50;100.00;99647.06;5039899;28;20517;-60
2022/01/24 07:37:22;;;;;;;23.17;8.18;;;;;;;4.60;100.00;99643.75;5041380;28;20148;-59
2022/01/24 07:39:48;;;;;;;22.90;8.05;;;;;;;4.46;100.00;99648.75;5038828;28;20021;-58
2022/01/24 07:42:16;;;;;;;23.58;9.07;;;;;;;4.57;100.00;99641.97;5038634;28;20045;-60
2022/01/24 07:44:42;;;;;;;20.58;7.82;;;;;;;4.64;100.00;99648.06;5041521;28;20024;-60
2022/01/24 07:47:08;;;;;;;19.52;8.30;;;;;;;4.70;100.00;99642.94;5041329;28;20033;-58
2022/01/24 07:49:34;;;;;;;21.30;7.90;;;;;;;4.75;100.00;99643.88;5041738;28;20070;-58
2022/01/24 07:52:00;;;;;;;23.10;8.48;;;;;;;5.01;100.00;99643.22;5040706;28;20041;-58
2022/01/24 07:54:26;;;;;;;22.67;7.82;;;;;;;4.83;100.00;99644.81;5041815;28;20146;-60
2022/01/24 07:56:51;;;;;;;21.27;7.90;;;;;;;4.87;100.00;99650.00;5041371;28;20044;-58
2022/01/24 07:59:17;;;;;;;22.10;7.97;;;;;;;4.88;100.00;99651.75;5041780;28;20075;-60
2022/01/24 08:01:42;;;;;;;20.52;7.70;;;;;;;4.71;100.00;99649.88;5040493;28;20205;-58
2022/01/24 08:04:11;;;;;;;20.60;8.38;;;;;;;5.35;100.00;99659.00;5041518;28;20056;-59
2022/01/24 08:06:37;;;;;;;20.73;7.60;;;;;;;5.28;100.00;99657.22;5040738;28;20029;-58
2022/01/24 08:09:02;;;;;;;17.60;6.53;;;;;;;5.06;100.00;99662.22;5041026;28;20035;-59
2022/01/24 08:11:27;;;;;;;18.70;6.15;;;;;;;5.40;100.00;99659.88;5040188;28;20653;-59
2022/01/24 08:13:54;;;;;;;19.25;6.05;;;;;;;5.73;100.00;99666.09;5041018;28;20249;-58
2022/01/24 08:16:21;;;;;;;19.40;5.40;;;;;;;5.80;100.00;99668.72;5040926;28;20068;-58
2022/01/24 08:18:51;;;;;;;15.05;5.20;;;;;;;6.01;100.00;99661.09;5040422;28;20128;-58
2022/01/24 08:21:16;;;;;;;19.02;6.95;;;;;;;6.28;100.00;99666.38;5040446;28;20064;-59
2022/01/24 08:23:41;;;;;;;15.38;5.82;;;;;;;5.60;100.00;99660.84;5041221;28;20129;-59
2022/01/24 08:26:07;;;;;;;15.27;5.63;;;;;;;5.69;100.00;99659.19;5040415;28;20505;-58
2022/01/24 08:28:32;;;;;;;14.43;5.88;;;;;;;5.82;100.00;99660.97;5040646;28;20681;-58
2022/01/24 08:30:57;;;;;;;20.75;7.32;;;;;;;5.82;100.00;99663.56;5039630;28;20656;-58
2022/01/24 08:33:23;;;;;;;18.30;6.57;;;;;;;6.15;100.00;99672.38;5040667;28;20040;-58
2022/01/24 08:35:48;;;;;;;17.42;7.78;;;;;;;5.66;100.00;99661.75;5040108;28;20740;-60
2022/01/24 08:38:14;;;;;;;20.98;6.72;;;;;;;5.98;100.00;99659.38;5040407;28;20301;-60
2022/01/24 08:40:41;;;;;;;18.92;6.97;;;;;;;5.89;100.00;99662.75;5040059;28;20032;-59
2022/01/24 08:43:07;;;;;;;17.58;6.88;;;;;;;5.93;100.00;99674.84;5040272;28;20660;-61
2022/01/24 08:45:48;;;;;;;18.48;7.10;;;;;;;5.83;100.00;99672.22;5040036;28;20057;-58
2022/01/24 08:48:16;;;;;;;18.20;6.75;;;;;;;5.81;100.00;99667.03;5040102;28;20447;-58
2022/01/24 08:50:42;;;;;;;17.45;6.30;;;;;;;5.93;100.00;99667.06;5039551;28;20060;-62
2022/01/24 08:53:10;;;;;;;18.92;6.10;;;;;;;5.98;100.00;99665.41;5040994;28;20040;-59
2022/01/24 08:55:36;;;;;;;18.98;7.00;;;;;;;6.13;100.00;99664.59;5038814;28;20167;-59
2022/01/24 08:58:04;;;;;;;17.40;6.45;;;;;;;6.33;100.00;99674.16;5040598;28;20563;-60
2022/01/24 09:00:29;;;;;;;20.25;7.45;;;;;;;6.25;100.00;99676.75;5039706;28;20128;-58
2022/01/24 09:02:55;;;;;;;17.48;6.07;;;;;;;6.79;100.00;99678.59;5039988;28;20120;-59
2022/01/24 09:05:24;;;;;;;19.60;6.68;;;;;;;6.40;100.00;99672.47;5040191;28;20029;-59
2022/01/24 09:07:51;;;;;;;17.27;7.25;;;;;;;6.40;100.00;99672.47;5040418;28;20020;-59
2022/01/24 09:10:18;;;;;;;20.92;7.88;;;;;;;6.17;100.00;99668.06;5039180;28;20036;-59
2022/01/24 09:12:44;;;;;;;15.32;5.30;;;;;;;6.49;100.00;99677.69;5039975;28;20029;-61
2022/01/24 09:15:09;;;;;;;18.05;7.05;;;;;;;6.28;100.00;99675.88;5039743;28;20035;-59
2022/01/24 09:17:35;;;;;;;15.60;5.95;;;;;;;6.28;100.00;99676.72;5038858;28;20028;-58
2022/01/24 09:20:01;;;;;;;17.48;6.45;;;;;;;6.15;100.00;99678.41;5040243;28;20507;-60
2022/01/24 09:22:26;;;;;;;18.77;6.53;;;;;;;6.21;100.00;99669.78;5039036;28;20434;-59
2022/01/24 09:24:52;;;;;;;17.92;6.13;;;;;;;6.41;100.00;99676.78;5040071;28;20033;-59
2022/01/24 09:27:18;;;;;;;19.15;6.57;;;;;;;6.46;100.00;99662.09;5039590;28;20029;-58
2022/01/24 09:29:43;;;;;;;15.77;6.20;;;;;;;6.48;100.00;99668.16;5039780;28;20334;-60
2022/01/24 09:32:08;;;;;;;16.58;6.78;;;;;;;6.14;100.00;99665.47;5039032;28;20049;-61
2022/01/24 09:34:34;;;;;;;15.48;6.13;;;;;;;5.90;100.00;99669.66;5040158;28;20236;-61
2022/01/24 09:37:00;;;;;;;17.30;7.05;;;;;;;5.87;100.00;99669.63;5039277;28;20032;-58
2022/01/24 09:39:25;;;;;;;17.65;6.68;;;;;;;6.05;100.00;99670.63;5040491;28;20029;-60
2022/01/24 09:41:51;;;;;;;18.10;6.82;;;;;;;5.66;100.00;99675.59;5042848;28;20029;-58
2022/01/24 09:44:17;;;;;;;17.30;6.30;;;;;;;5.41;100.00;99679.72;5044281;28;20521;-60
2022/01/24 09:46:44;;;;;;;18.73;6.28;;;;;;;5.27;100.00;99677.03;5043400;28;20055;-59
2022/01/24 09:49:09;;;;;;;17.98;5.35;;;;;;;5.02;100.00;99687.19;5043536;28;20017;-61
2022/01/24 09:51:37;;;;;;;18.80;6.63;;;;;;;4.90;100.00;99686.22;5042870;28;20045;-58
2022/01/24 09:54:04;;;;;;;16.88;5.35;;;;;;;5.04;100.00;99684.63;5043870;28;20036;-60
2022/01/24 09:56:30;;;;;;;17.88;5.47;;;;;;;5.01;100.00;99685.47;5043429;28;20039;-59
2022/01/24 09:58:55;;;;;;;19.70;5.88;;;;;;;4.99;100.00;99681.13;5043426;28;20024;-59
2022/01/24 10:01:21;;;;;;;14.10;5.20;;;;;;;4.65;100.00;99683.44;5042893;28;20044;-59
2022/01/24 10:04:09;;;;;;;16.77;5.03;;;;;;;4.86;100.00;99685.34;5043327;28;20028;-59
2022/01/24 10:07:01;;;;;;;20.17;5.43;;;;;;;4.93;100.00;99688.84;5042473;28;20049;-58
2022/01/24 10:09:48;;;;;;;18.73;5.50;;;;;;;5.35;100.00;99684.88;5043526;28;20935;-61
2022/01/24 10:17:32;;;;;;;20.95;6.20;;;;;;;5.31;100.00;99683.09;5042856;28;20075;-59
2022/01/24 10:19:57;;;;;;;16.10;5.10;;;;;;;5.70;100.00;99687.69;5043046;28;20061;-58
2022/01/24 10:22:25;;;;;;;14.98;4.95;;;;;;;5.89;100.00;99678.28;5042579;28;20120;-59
2022/01/24 10:24:54;;;;;;;19.00;5.70;;;;;;;6.19;100.00;99684.47;5043104;28;20036;-58
2022/01/24 10:27:29;;;;;;;15.80;5.55;;;;;;;6.03;100.00;99680.09;5042786;28;20077;-59
2022/01/24 10:30:08;;;;;;;19.50;5.68;;;;;;;6.11;100.00;99678.41;5042241;28;20052;-61
2022/01/24 10:32:39;;;;;;;21.95;6.00;;;;;;;6.24;100.00;99675.00;5042349;28;20044;-59
2022/01/24 10:35:31;;;;;;;15.27;5.68;;;;;;;6.05;100.00;99679.25;5041867;28;20094;-58
2022/01/24 10:38:52;;;;;;;16.60;4.97;;;;;;;6.27;100.00;99667.25;5043187;28;20032;-61
2022/01/24 10:41:23;;;;;;;16.48;5.10;;;;;;;6.58;100.00;99664.75;5041938;28;20045;-58
2022/01/24 10:43:52;;;;;;;15.93;5.05;;;;;;;6.30;100.00;99656.00;5042205;28;20861;-58
2022/01/24 10:46:26;;;;;;;17.13;5.20;;;;;;;7.34;100.00;99669.06;5041861;28;20740;-60
2022/01/24 10:49:04;;;;;;;15.40;4.88;;;;;;;6.80;100.00;99664.75;5042596;28;20116;-59
2022/01/24 10:51:37;;;;;;;18.08;5.53;;;;;;;6.26;100.00;99657.72;5040267;28;20047;-58
2022/01/24 10:54:03;;;;;;;19.23;5.80;;;;;;;6.46;100.00;99646.56;5042398;28;20470;-59
2022/01/24 10:56:39;;;;;;;14.75;5.20;;;;;;;6.68;100.00;99656.09;5041967;28;20548;-60
2022/01/24 10:59:14;;;;;;;17.08;5.50;;;;;;;6.70;100.00;99649.16;5042580;28;20025;-61
2022/01/24 11:01:41;;;;;;;15.20;5.00;;;;;;;6.43;100.00;99644.81;5041698;28;20126;-59
2022/01/24 11:04:14;;;;;;;15.45;5.00;;;;;;;5.87;100.00;99643.75;5042243;28;20021;-59
2022/01/24 11:06:43;;;;;;;14.82;5.65;;;;;;;6.05;100.00;99642.13;5041834;28;20071;-59
2022/01/24 11:09:12;;;;;;;17.25;6.07;;;;;;;6.39;100.00;99637.03;5042302;28;20025;-58
2022/01/24 11:11:38;;;;;;;18.98;5.78;;;;;;;5.92;100.00;99636.88;5041069;28;20049;-58
2022/01/24 11:14:04;;;;;;;16.13;5.95;;;;;;;6.11;100.00;99642.13;5040821;28;20023;-59
2022/01/24 11:16:30;;;;;;;15.75;4.65;;;;;;;5.68;100.00;99636.72;5041722;28;20429;-58
2022/01/24 11:18:55;;;;;;;17.17;4.93;;;;;;;5.82;100.00;99642.84;5041978;28;20479;-59
2022/01/24 11:21:21;;;;;;;15.70;5.00;;;;;;;5.41;100.00;99633.16;5041679;28;20048;-58
2022/01/24 11:23:48;;;;;;;16.88;4.50;;;;;;;5.28;100.00;99633.94;5042106;28;20032;-58
2022/01/24 11:26:14;;;;;;;17.33;5.55;;;;;;;5.63;100.00;99628.97;5041320;28;20140;-60
2022/01/24 11:28:39;;;;;;;15.23;5.32;;;;;;;5.63;100.00;99638.47;5041959;28;20028;-61
2022/01/24 11:31:14;;;;;;;18.10;5.10;;;;;;;5.82;100.00;99632.50;5039765;28;20037;-59
2022/01/24 11:33:42;;;;;;;16.85;5.18;;;;;;;5.74;100.00;99632.47;5041694;28;20037;-58
2022/01/24 11:36:09;;;;;;;17.95;6.30;;;;;;;5.67;100.00;99629.84;5041453;28;20044;-60
2022/01/24 11:38:44;;;;;;;15.07;5.97;;;;;;;5.75;100.00;99630.72;5042010;28;20059;-58
2022/01/24 11:41:25;;;;;;;22.13;6.70;;;;;;;5.80;100.00;99629.88;5040962;28;20029;-60
2022/01/24 11:43:55;;;;;;;16.17;4.80;;;;;;;5.28;100.00;99631.34;5041367;28;20024;-62
2022/01/24 11:46:47;;;;;;;12.75;4.30;;;;;;;5.21;100.00;99630.44;5041035;28;20106;-60
2022/01/24 11:49:18;;;;;;;16.85;5.70;;;;;;;5.47;100.00;99628.00;5041512;28;20029;-59
2022/01/24 11:52:11;;;;;;;27.25;5.05;;;;;;;5.28;100.00;99627.03;5040652;28;20045;-59
2022/01/24 11:57:45;;;;;;;21.52;5.55;;;;;;;5.53;100.00;99622.88;5040731;28;20076;-61
2022/01/24 12:00:10;;;;;;;16.83;5.10;;;;;;;5.32;100.00;99612.41;5040822;28;20668;-61
2022/01/24 12:02:38;;;;;;;19.17;4.93;;;;;;;5.47;100.00;99615.06;5040608;28;20067;-61
2022/01/24 12:05:20;;;;;;;14.02;4.68;;;;;;;5.26;100.00;99613.22;5040899;28;20143;-58
2022/01/24 12:07:51;;;;;;;22.45;5.70;;;;;;;5.28;100.00;99610.66;5041272;28;20029;-59
2022/01/24 12:10:23;;;;;;;19.83;5.77;;;;;;;5.21;100.00;99610.59;5039876;28;20025;-61
2022/01/24 12:12:59;;;;;;;18.67;5.28;;;;;;;5.34;100.00;99605.50;5041314;28;20266;-59
2022/01/24 12:15:37;;;;;;;15.90;4.70;;;;;;;5.27;100.00;99601.16;5040424;28;20668;-59
2022/01/24 12:18:26;;;;;;;15.80;4.68;;;;;;;5.14;100.00;99601.06;5040725;28;20033;-59
2022/01/24 12:21:23;;;;;;;17.25;5.07;;;;;;;5.39;100.00;99598.63;5040043;28;20067;-59
2022/01/24 12:24:04;;;;;;;17.75;4.60;;;;;;;5.19;100.00;99596.78;5040642;28;20082;-59
2022/01/24 12:26:39;;;;;;;18.48;4.90;;;;;;;5.45;100.00;99595.22;5040287;28;20049;-60
2022/01/24 12:29:12;;;;;;;17.23;5.30;;;;;;;4.99;100.00;99588.03;5040580;28;20064;-59
2022/01/24 12:31:51;;;;;;;17.80;4.57;;;;;;;4.86;100.00;99591.41;5039820;28;20053;-60
2022/01/24 12:34:37;;;;;;;14.25;4.53;;;;;;;5.03;100.00;99589.78;5040913;28;20108;-59
2022/01/24 12:37:08;;;;;;;18.77;5.07;;;;;;;4.97;100.00;99585.44;5040053;28;20126;-62
2022/01/24 12:39:47;;;;;;;15.80;4.40;;;;;;;5.25;100.00;99589.94;5040137;28;20029;-60
2022/01/24 12:42:26;;;;;;;19.95;5.03;;;;;;;5.14;100.00;99590.72;5040043;28;20049;-58
2022/01/24 12:47:20;;;;;;;14.02;4.43;;;;;;;5.31;100.00;99592.53;5040146;28;20409;-59
2022/01/24 12:49:47;;;;;;;14.05;4.50;;;;;;;5.58;100.00;99586.66;5050089;28;20025;-60
2022/01/24 12:52:16;;;;;;;12.90;4.13;;;;;;;5.53;100.00;99581.47;5039885;28;20514;-59
2022/01/24 12:54:44;;;;;;;15.85;4.53;;;;;;;5.46;100.00;99579.69;5040580;28;20470;-59
2022/01/24 12:57:15;;;;;;;11.80;3.72;;;;;;;5.53;100.00;99573.69;5040106;28;20498;-62
2022/01/24 12:59:55;;;;;;;14.60;4.53;;;;;;;5.45;100.00;99583.13;5040483;28;20029;-60
2022/01/24 13:02:26;;;;;;;20.05;4.88;;;;;;;5.69;100.00;99573.75;5038806;28;20102;-60
2022/01/24 13:04:58;;;;;;;14.60;4.60;;;;;;;5.58;100.00;99578.88;5040853;28;20028;-59
2022/01/24 13:07:23;;;;;;;14.30;4.40;;;;;;;6.38;100.00;99573.97;5039776;28;20135;-59
2022/01/24 13:09:49;;;;;;;16.15;4.90;;;;;;;6.19;100.00;99578.25;5039660;28;20115;-61
2022/01/24 13:12:15;;;;;;;23.15;5.07;;;;;;;6.04;100.00;99578.22;5054119;28;20142;-59
2022/01/24 13:22:53;;;;;;;;;;;;;;;;;;;;;